Time;durP1;ratioP1;P1;durP2;ratioP2;P2;SDS_P1;SDS_P2;PMS_P1;PMS_P2;Temp;Humidity;BMP_temperature;BMP_pressure;BME280_temperature;BME280_humidity;BME280_pressure;Samples;Min_cycle;Max_cycle;Signal;HPM_P1;HPM_P2
2022/03/09 00:00:39;;;;;;;7.13;4.15;;;0.10;99.90;;;;;;5051499;28;20528;-52
2022/03/09 00:03:05;;;;;;;6.82;4.63;;;0.10;99.90;;;;;;5052217;28;20032;-53
2022/03/09 00:05:31;;;;;;;7.10;4.95;;;0.10;99.90;;;;;;5052213;28;20040;-52
2022/03/09 00:07:56;;;;;;;7.80;4.15;;;0.00;99.90;;;;;;5051207;28;20036;-51
2022/03/09 00:10:22;;;;;;;5.05;4.25;;;0.00;99.90;;;;;;5051942;28;20029;-52
2022/03/09 00:12:47;;;;;;;6.05;4.78;;;-0.10;99.90;;;;;;5051797;28;20060;-52
2022/03/09 00:15:13;;;;;;;6.25;4.32;;;-0.10;99.90;;;;;;5051457;28;20041;-54
2022/03/09 00:17:38;;;;;;;7.03;4.90;;;-0.20;99.90;;;;;;5050640;28;20382;-53
2022/03/09 00:20:06;;;;;;;5.88;4.18;;;-0.20;99.90;;;;;;5048732;28;20388;-51
2022/03/09 00:22:31;;;;;;;6.45;4.55;;;-0.20;99.90;;;;;;5051066;28;20032;-54
2022/03/09 00:24:57;;;;;;;4.35;3.58;;;-0.30;99.90;;;;;;5051707;28;20020;-50
2022/03/09 00:27:22;;;;;;;6.80;3.90;;;-0.30;99.90;;;;;;5051579;28;20414;-50
2022/03/09 00:29:48;;;;;;;8.13;5.05;;;-0.30;99.90;;;;;;5050827;28;20083;-51
2022/03/09 00:32:14;;;;;;;7.45;4.50;;;-0.40;99.90;;;;;;5038440;28;20021;-52
2022/03/09 00:34:40;;;;;;;7.80;4.57;;;-0.40;99.90;;;;;;5051964;28;20036;-53
2022/03/09 00:37:06;;;;;;;7.15;4.18;;;-0.40;99.90;;;;;;5051488;28;20060;-53
2022/03/09 00:39:32;;;;;;;5.43;3.85;;;-0.40;99.90;;;;;;5050514;28;20059;-52
2022/03/09 00:41:57;;;;;;;6.38;4.32;;;-0.50;99.90;;;;;;5051471;28;20489;-53
2022/03/09 00:44:23;;;;;;;5.93;4.25;;;-0.50;99.90;;;;;;5051243;28;20040;-53
2022/03/09 00:46:48;;;;;;;7.35;4.68;;;-0.50;99.90;;;;;;5051256;28;20029;-52
2022/03/09 00:49:15;;;;;;;5.13;4.18;;;-0.60;99.90;;;;;;5051379;28;20029;-52
2022/03/09 00:51:40;;;;;;;7.38;4.47;;;-0.60;99.90;;;;;;5050996;28;20063;-54
2022/03/09 00:54:06;;;;;;;6.88;4.55;;;-0.60;99.90;;;;;;5050676;28;20033;-50
2022/03/09 00:56:33;;;;;;;7.00;4.68;;;-0.70;99.90;;;;;;5051383;28;20048;-53
2022/03/09 00:58:59;;;;;;;6.53;4.28;;;-0.70;99.90;;;;;;5050556;28;20382;-51
2022/03/09 01:01:24;;;;;;;6.05;4.05;;;-0.70;99.90;;;;;;5051082;28;20047;-52
2022/03/09 01:03:50;;;;;;;7.55;4.15;;;-0.70;99.90;;;;;;5050302;28;20498;-52
2022/03/09 01:06:15;;;;;;;6.03;4.47;;;-0.70;99.90;;;;;;5050928;28;20021;-51
2022/03/09 01:08:41;;;;;;;5.68;4.57;;;-0.70;99.90;;;;;;5050762;28;20079;-52
2022/03/09 01:11:07;;;;;;;5.53;4.47;;;-0.70;99.90;;;;;;5051150;28;20025;-51
2022/03/09 01:13:32;;;;;;;7.07;4.32;;;-0.70;99.90;;;;;;5050470;28;20029;-51
2022/03/09 01:15:58;;;;;;;5.55;4.22;;;-0.80;99.90;;;;;;5050883;28;20496;-50
2022/03/09 01:18:23;;;;;;;7.03;4.32;;;-0.80;99.90;;;;;;5050844;28;20489;-50
2022/03/09 01:20:50;;;;;;;4.72;4.22;;;-0.80;99.90;;;;;;5050897;28;20032;-52
2022/03/09 01:23:15;;;;;;;5.35;4.20;;;-0.80;99.90;;;;;;5032622;28;20107;-50
2022/03/09 01:25:41;;;;;;;6.32;4.85;;;-0.80;99.90;;;;;;5050588;28;20159;-51
2022/03/09 01:28:07;;;;;;;4.78;3.65;;;-0.80;99.90;;;;;;5050389;28;20079;-51
2022/03/09 01:30:32;;;;;;;5.57;4.70;;;-0.90;99.90;;;;;;5050104;28;20033;-51
2022/03/09 01:32:58;;;;;;;6.20;3.90;;;-0.90;99.90;;;;;;5048625;28;20035;-53
2022/03/09 01:35:23;;;;;;;4.55;3.97;;;-0.90;99.90;;;;;;5043036;28;20040;-50
2022/03/09 01:37:49;;;;;;;5.57;4.40;;;-0.90;99.90;;;;;;5049983;28;20605;-50
2022/03/09 01:40:15;;;;;;;5.43;3.88;;;-0.90;99.90;;;;;;5049454;28;20646;-50
2022/03/09 01:42:42;;;;;;;10.43;4.35;;;-1.00;99.90;;;;;;5049931;28;20504;-52
2022/03/09 01:45:10;;;;;;;6.05;4.55;;;-1.00;99.90;;;;;;5050103;28;20051;-50
2022/03/09 01:47:36;;;;;;;5.55;4.18;;;-1.00;99.90;;;;;;5049894;28;20033;-51
2022/03/09 01:50:03;;;;;;;5.38;4.30;;;-1.10;99.90;;;;;;5050260;28;20033;-52
2022/03/09 03:36:53;;;;;;;6.80;3.78;;;-1.40;99.90;;;;;;5086690;28;20160;-50
2022/03/09 03:39:18;;;;;;;4.80;3.63;;;-1.40;99.90;;;;;;5090370;28;20039;-48
2022/03/09 03:41:44;;;;;;;8.10;4.32;;;-1.40;99.90;;;;;;5100590;28;20073;-50
2022/03/09 03:44:09;;;;;;;5.88;3.53;;;-1.40;99.90;;;;;;5099133;28;20039;-49
2022/03/09 03:46:35;;;;;;;7.43;3.72;;;-1.40;99.90;;;;;;5070265;28;20032;-48
2022/03/09 03:49:01;;;;;;;6.68;4.50;;;-1.40;99.90;;;;;;5089004;28;20119;-48
2022/03/09 03:51:26;;;;;;;7.35;4.60;;;-1.50;99.90;;;;;;5089263;28;20465;-49
2022/03/09 03:53:52;;;;;;;5.68;4.05;;;-1.50;99.90;;;;;;5088654;28;20028;-48
2022/03/09 03:56:18;;;;;;;6.47;4.13;;;-1.50;99.90;;;;;;5070246;28;20024;-46
2022/03/09 03:58:43;;;;;;;4.53;4.00;;;-1.50;99.90;;;;;;5070787;28;20028;-47
2022/03/09 04:01:09;;;;;;;9.68;4.85;;;-1.50;99.90;;;;;;5088711;28;20108;-47
2022/03/09 04:03:34;;;;;;;5.05;4.18;;;-1.50;99.90;;;;;;5088549;28;20506;-47
2022/03/09 04:06:02;;;;;;;5.68;3.22;;;-1.60;99.90;;;;;;5092218;28;20491;-47
2022/03/09 04:08:27;;;;;;;7.90;3.63;;;-1.60;99.90;;;;;;5092556;28;20080;-48
2022/03/09 04:10:53;;;;;;;4.82;3.58;;;-1.60;99.90;;;;;;5092331;28;20040;-48
2022/03/09 04:13:19;;;;;;;6.03;3.72;;;-1.60;99.90;;;;;;5091650;28;20081;-48
2022/03/09 04:15:44;;;;;;;6.95;3.38;;;-1.70;99.90;;;;;;5092187;28;20103;-48
2022/03/09 04:18:10;;;;;;;5.40;4.07;;;-1.70;99.90;;;;;;5073863;28;20024;-51
2022/03/09 04:20:35;;;;;;;6.18;3.83;;;-1.70;99.90;;;;;;5073741;28;20020;-48
2022/03/09 04:23:01;;;;;;;5.55;4.25;;;-1.80;99.90;;;;;;5091882;28;20539;-46
2022/03/09 04:25:29;;;;;;;5.05;3.80;;;-1.80;99.90;;;;;;5053544;28;20063;-47
2022/03/09 04:27:54;;;;;;;5.05;3.45;;;-1.80;99.90;;;;;;5078851;28;20028;-48
2022/03/09 04:30:20;;;;;;;4.95;3.63;;;-1.90;99.90;;;;;;5092019;28;20035;-47
2022/03/09 04:32:45;;;;;;;7.15;3.90;;;-1.90;99.90;;;;;;5073402;28;20126;-48
2022/03/09 04:35:11;;;;;;;4.38;3.78;;;-1.90;99.90;;;;;;5091563;28;20043;-47
2022/03/09 04:37:37;;;;;;;4.50;3.78;;;-1.90;99.90;;;;;;5091717;28;20111;-46
2022/03/09 04:40:04;;;;;;;5.90;3.58;;;-2.00;99.90;;;;;;5091601;28;20020;-47
2022/03/09 04:42:30;;;;;;;5.07;3.60;;;-2.00;99.90;;;;;;5091152;28;20032;-46
2022/03/09 04:44:56;;;;;;;9.27;4.00;;;-2.00;99.90;;;;;;5091781;28;20031;-49
2022/03/09 04:47:22;;;;;;;5.95;3.63;;;-2.00;99.90;;;;;;5072831;28;20399;-47
2022/03/09 04:49:47;;;;;;;7.35;4.22;;;-2.10;99.90;;;;;;5091612;28;20025;-48
2022/03/09 04:52:13;;;;;;;6.05;4.18;;;-2.10;99.90;;;;;;5091342;28;20060;-48
2022/03/09 04:54:39;;;;;;;5.38;4.00;;;-2.10;99.90;;;;;;5091148;28;20024;-46
2022/03/09 04:57:04;;;;;;;5.55;3.65;;;-2.10;99.90;;;;;;5091169;28;20568;-48
2022/03/09 04:59:30;;;;;;;6.65;4.32;;;-2.10;99.90;;;;;;5091161;28;20032;-47
2022/03/09 05:01:56;;;;;;;6.32;4.15;;;-2.20;99.90;;;;;;5090659;28;20038;-48
2022/03/09 05:04:21;;;;;;;6.85;4.35;;;-2.20;99.90;;;;;;5091019;28;20052;-47
2022/03/09 05:06:47;;;;;;;5.10;3.88;;;-2.20;99.90;;;;;;5091027;28;20098;-49
2022/03/09 05:09:13;;;;;;;4.63;3.38;;;-2.30;99.90;;;;;;5091426;28;20028;-47
2022/03/09 05:11:39;;;;;;;4.22;3.60;;;-2.30;99.90;;;;;;5091810;28;20549;-48
2022/03/09 05:14:04;;;;;;;6.55;4.55;;;-2.30;99.90;;;;;;5090742;28;20074;-47
2022/03/09 05:16:30;;;;;;;6.05;4.40;;;-2.30;99.90;;;;;;5072543;28;20130;-49
2022/03/09 05:18:56;;;;;;;7.47;4.75;;;-2.30;99.90;;;;;;5072476;28;20084;-48
2022/03/09 05:21:21;;;;;;;7.30;4.25;;;-2.30;99.90;;;;;;5090909;28;20017;-47
2022/03/09 05:23:47;;;;;;;6.68;4.25;;;-2.30;99.90;;;;;;5090727;28;20020;-49
2022/03/09 05:26:13;;;;;;;6.10;4.20;;;-2.30;99.90;;;;;;5090196;28;20020;-50
2022/03/09 05:28:39;;;;;;;7.00;4.78;;;-2.40;99.90;;;;;;5090322;28;20049;-51
2022/03/09 05:31:04;;;;;;;5.57;4.28;;;-2.40;99.90;;;;;;5090763;28;20024;-51
2022/03/09 05:33:30;;;;;;;6.32;4.53;;;-2.40;99.90;;;;;;5090245;28;20105;-47
2022/03/09 05:35:55;;;;;;;7.78;4.47;;;-2.40;99.90;;;;;;5090639;28;20103;-48
2022/03/09 05:38:21;;;;;;;7.18;4.30;;;-2.40;99.90;;;;;;5090212;28;20105;-50
2022/03/09 05:40:46;;;;;;;7.50;4.60;;;-2.40;99.90;;;;;;5090382;28;20069;-47
2022/03/09 05:43:12;;;;;;;8.50;5.32;;;-2.40;99.90;;;;;;5090116;28;20038;-49
2022/03/09 05:45:38;;;;;;;8.65;4.88;;;-2.40;99.90;;;;;;5090392;28;20023;-47
2022/03/09 05:48:04;;;;;;;6.97;5.35;;;-2.40;99.90;;;;;;5072658;28;20495;-50
2022/03/09 05:50:30;;;;;;;8.23;4.82;;;-2.40;99.90;;;;;;5090695;28;20028;-48
2022/03/09 05:52:56;;;;;;;5.93;4.47;;;-2.40;99.90;;;;;;5090024;28;20040;-48
2022/03/09 05:55:22;;;;;;;8.27;4.93;;;-2.40;99.90;;;;;;5089916;28;20031;-47
2022/03/09 05:57:47;;;;;;;7.15;4.72;;;-2.40;99.90;;;;;;5071615;28;20046;-49
2022/03/09 06:00:13;;;;;;;7.65;4.97;;;-2.40;99.90;;;;;;5089792;28;20024;-50
2022/03/09 06:02:39;;;;;;;12.43;4.85;;;-2.40;99.90;;;;;;5090124;28;20428;-48
2022/03/09 06:05:05;;;;;;;7.05;5.18;;;-2.40;99.90;;;;;;5090277;28;20028;-48
2022/03/09 06:07:32;;;;;;;7.03;4.95;;;-2.40;99.90;;;;;;5089847;28;20260;-47
2022/03/09 06:09:58;;;;;;;10.55;5.50;;;-2.30;99.90;;;;;;5071896;28;20036;-47
2022/03/09 06:12:23;;;;;;;7.70;4.55;;;-2.30;99.90;;;;;;5089452;28;20070;-48
2022/03/09 06:14:49;;;;;;;6.40;4.65;;;-2.30;99.90;;;;;;5089934;28;20031;-49
2022/03/09 06:17:14;;;;;;;10.00;5.40;;;-2.30;99.90;;;;;;5089766;28;20641;-48
2022/03/09 06:19:40;;;;;;;6.10;4.28;;;-2.30;99.90;;;;;;5089971;28;20035;-48
2022/03/09 06:22:06;;;;;;;7.53;4.68;;;-2.40;99.90;;;;;;5089628;28;20038;-45
2022/03/09 06:24:31;;;;;;;6.93;4.63;;;-2.40;99.90;;;;;;5071461;28;20031;-47
2022/03/09 06:26:57;;;;;;;7.75;5.00;;;-2.30;99.90;;;;;;5089103;28;20042;-47
2022/03/09 06:29:23;;;;;;;6.22;4.65;;;-2.20;99.90;;;;;;5089754;28;20069;-50
2022/03/09 06:31:48;;;;;;;8.93;4.57;;;-2.20;99.90;;;;;;5089479;28;20082;-46
2022/03/09 06:34:14;;;;;;;7.97;4.93;;;-2.10;99.90;;;;;;5090061;28;20077;-46
2022/03/09 06:36:44;;;;;;;6.50;4.25;;;-2.10;99.90;;;;;;5089891;28;20099;-47
2022/03/09 06:39:12;;;;;;;6.45;4.78;;;-2.10;99.90;;;;;;5073485;28;20026;-46
2022/03/09 06:41:41;;;;;;;8.55;4.97;;;-2.00;99.90;;;;;;5089933;28;20032;-48
2022/03/09 06:44:07;;;;;;;7.25;4.97;;;-1.90;99.90;;;;;;5089590;28;20047;-49
2022/03/09 06:46:32;;;;;;;6.10;4.30;;;-1.90;99.90;;;;;;5090128;28;20531;-49
2022/03/09 06:48:58;;;;;;;6.38;4.57;;;-1.80;99.90;;;;;;5089924;28;20024;-46
2022/03/09 06:51:23;;;;;;;7.95;5.22;;;-1.80;99.90;;;;;;5089345;28;20024;-47
2022/03/09 06:53:49;;;;;;;8.50;4.65;;;-1.70;99.90;;;;;;5088890;28;20483;-47
2022/03/09 06:56:18;;;;;;;5.85;4.65;;;-1.60;99.90;;;;;;5089865;28;20024;-48
2022/03/09 06:58:45;;;;;;;6.45;4.57;;;-1.60;99.90;;;;;;5071060;28;20031;-49
2022/03/09 07:01:11;;;;;;;7.60;5.22;;;-1.50;99.90;;;;;;5089351;28;20035;-51
2022/03/09 07:03:36;;;;;;;5.88;4.78;;;-1.40;99.90;;;;;;5089574;28;20028;-49
2022/03/09 07:06:02;;;;;;;7.88;5.07;;;-1.40;99.90;;;;;;5071160;28;20024;-49
2022/03/09 07:08:28;;;;;;;8.38;5.18;;;-1.40;99.90;;;;;;5089399;28;20032;-50
2022/03/09 07:10:54;;;;;;;6.82;4.70;;;-1.30;99.90;;;;;;5088408;28;20047;-49
2022/03/09 07:13:19;;;;;;;7.93;5.03;;;-1.20;99.90;;;;;;5092526;28;20091;-50
2022/03/09 07:15:45;;;;;;;6.13;5.07;;;-1.10;99.90;;;;;;5088832;28;20035;-48
2022/03/09 07:18:10;;;;;;;10.85;5.72;;;-1.10;99.90;;;;;;5085857;28;20027;-51
2022/03/09 07:20:36;;;;;;;7.65;5.07;;;-0.90;99.90;;;;;;5069382;28;20032;-48
2022/03/09 07:23:02;;;;;;;7.25;4.63;;;-0.90;99.90;;;;;;5085956;28;20070;-50
2022/03/09 07:25:28;;;;;;;8.88;5.53;;;-0.80;99.90;;;;;;5089024;28;20040;-50
2022/03/09 07:27:53;;;;;;;7.57;5.18;;;-0.70;99.90;;;;;;5089615;28;20032;-48
2022/03/09 07:30:19;;;;;;;7.68;5.25;;;-0.60;99.90;;;;;;5089682;28;20032;-49
2022/03/09 07:32:45;;;;;;;8.60;5.15;;;-0.40;99.90;;;;;;5071117;28;20521;-48
2022/03/09 07:35:11;;;;;;;9.52;5.20;;;-0.30;99.90;;;;;;5089216;28;20028;-48
2022/03/09 07:37:37;;;;;;;6.63;5.22;;;-0.20;99.90;;;;;;5090033;28;20445;-50
2022/03/09 07:40:04;;;;;;;7.70;5.40;;;-0.10;99.90;;;;;;5093310;28;20028;-47
2022/03/09 07:42:30;;;;;;;7.75;5.07;;;0.00;99.90;;;;;;5074674;28;20067;-47
2022/03/09 07:44:56;;;;;;;6.90;5.03;;;0.10;99.90;;;;;;5075424;28;20094;-48
2022/03/09 07:47:22;;;;;;;7.13;5.13;;;0.20;99.90;;;;;;5093336;28;20063;-48
2022/03/09 07:49:47;;;;;;;6.20;5.10;;;0.30;99.90;;;;;;5093433;28;20036;-48
2022/03/09 07:52:13;;;;;;;6.93;4.55;;;0.40;99.90;;;;;;5092080;28;20158;-47
2022/03/09 07:54:39;;;;;;;9.00;5.18;;;0.60;99.90;;;;;;5074361;28;20080;-46
2022/03/09 07:57:05;;;;;;;9.95;5.85;;;0.60;99.90;;;;;;5093083;28;20024;-49
2022/03/09 07:59:31;;;;;;;7.60;4.82;;;0.70;99.90;;;;;;5092748;28;20202;-49
2022/03/09 08:01:56;;;;;;;8.57;5.25;;;0.90;99.90;;;;;;5092840;28;20063;-49
2022/03/09 08:04:23;;;;;;;8.75;5.30;;;1.00;99.90;;;;;;5092839;28;20052;-47
2022/03/09 08:06:50;;;;;;;6.53;4.60;;;1.10;99.90;;;;;;5092597;28;20524;-48
2022/03/09 08:09:16;;;;;;;7.15;4.45;;;1.30;99.90;;;;;;5074622;28;20050;-49
2022/03/09 08:11:42;;;;;;;7.72;4.57;;;1.40;99.90;;;;;;5092892;28;20044;-50
2022/03/09 08:14:08;;;;;;;6.93;4.65;;;1.60;99.90;;;;;;5073983;28;20074;-48
2022/03/09 08:16:35;;;;;;;6.88;4.00;;;1.80;99.90;;;;;;5092683;28;20115;-48
2022/03/09 08:19:00;;;;;;;6.15;4.55;;;2.00;99.90;;;;;;5092887;28;20043;-48
2022/03/09 08:21:26;;;;;;;4.05;3.65;;;2.20;99.90;;;;;;5092678;28;20020;-49
2022/03/09 08:23:51;;;;;;;6.75;3.97;;;2.40;99.90;;;;;;5092450;28;20024;-48
2022/03/09 08:26:17;;;;;;;7.03;4.50;;;2.70;99.90;;;;;;5091963;28;20119;-48
2022/03/09 08:28:42;;;;;;;6.50;4.30;;;2.90;99.90;;;;;;5092322;28;20028;-50
2022/03/09 08:31:08;;;;;;;5.10;4.00;;;3.20;99.90;;;;;;5092179;28;20484;-48
2022/03/09 08:33:34;;;;;;;6.30;4.63;;;3.40;99.90;;;;;;5092756;28;20044;-49
2022/03/09 08:36:00;;;;;;;5.72;4.10;;;3.70;99.90;;;;;;5091660;28;20483;-49
2022/03/09 08:38:25;;;;;;;5.72;4.25;;;4.00;99.90;;;;;;5091977;28;20035;-46
2022/03/09 08:40:51;;;;;;;6.05;3.97;;;4.20;99.90;;;;;;5092310;28;20032;-50
2022/03/09 08:43:18;;;;;;;4.97;4.05;;;4.40;99.90;;;;;;5092405;28;20476;-49
2022/03/09 08:45:44;;;;;;;5.50;4.05;;;4.70;99.90;;;;;;5091492;28;20170;-48
2022/03/09 08:48:10;;;;;;;8.55;3.85;;;4.90;99.90;;;;;;5092074;28;20474;-48
2022/03/09 08:50:36;;;;;;;5.00;3.88;;;5.10;99.90;;;;;;5091130;28;20043;-49
2022/03/09 08:53:02;;;;;;;6.05;3.63;;;5.40;99.90;;;;;;5074038;28;20074;-51
2022/03/09 08:55:28;;;;;;;4.03;3.38;;;5.60;99.90;;;;;;5091584;28;20100;-48
2022/03/09 08:57:55;;;;;;;6.10;3.55;;;5.80;99.90;;;;;;5091765;28;20028;-51
2022/03/09 09:00:20;;;;;;;6.20;3.40;;;6.00;99.90;;;;;;5091574;28;20032;-50
2022/03/09 09:02:46;;;;;;;4.43;3.30;;;6.20;99.90;;;;;;5092190;28;20556;-49
2022/03/09 09:05:12;;;;;;;5.25;3.30;;;6.40;99.90;;;;;;5091962;28;20048;-52
2022/03/09 09:07:37;;;;;;;6.53;3.85;;;6.60;99.90;;;;;;5072981;28;20028;-49
2022/03/09 09:10:05;;;;;;;5.30;3.72;;;6.70;99.90;;;;;;5091303;28;20028;-49
2022/03/09 09:12:31;;;;;;;6.38;3.78;;;6.90;99.90;;;;;;5089101;28;20588;-48
2022/03/09 09:14:57;;;;;;;5.72;3.72;;;7.00;99.90;;;;;;5091396;28;20027;-47
2022/03/09 09:17:23;;;;;;;6.60;4.43;;;7.20;99.90;;;;;;5091167;28;20028;-48
2022/03/09 09:19:49;;;;;;;4.85;3.25;;;7.30;99.90;;;;;;5091299;28;20053;-48
2022/03/09 09:22:14;;;;;;;6.13;3.63;;;7.50;99.90;;;;;;5090503;28;20032;-50
2022/03/09 09:24:40;;;;;;;9.85;3.88;;;7.70;99.90;;;;;;5073197;28;20032;-49
2022/03/09 09:27:06;;;;;;;5.00;3.78;;;7.80;99.90;;;;;;5146431;22;20044;-54
2022/03/09 09:29:32;;;;;;;4.10;3.65;;;7.90;99.90;;;;;;5069859;28;20086;-51
2022/03/09 09:31:57;;;;;;;4.60;3.58;;;8.10;98.80;;;;;;5070607;28;20115;-53
2022/03/09 09:34:23;;;;;;;4.40;3.80;;;8.20;97.70;;;;;;5070596;28;20103;-51
2022/03/09 09:36:48;;;;;;;5.13;3.72;;;8.40;97.80;;;;;;5070716;28;20480;-51
2022/03/09 09:39:16;;;;;;;5.35;3.80;;;8.40;97.20;;;;;;5052718;28;20021;-51
2022/03/09 09:41:43;;;;;;;6.65;3.97;;;8.60;94.10;;;;;;5070871;28;20029;-53
2022/03/09 09:44:11;;;;;;;5.40;3.80;;;8.70;95.50;;;;;;5051967;28;20024;-51
2022/03/09 09:46:39;;;;;;;5.63;3.78;;;8.80;93.00;;;;;;5070578;28;20085;-51
2022/03/09 09:49:06;;;;;;;9.10;4.15;;;8.90;94.90;;;;;;5069995;28;20009;-53
2022/03/09 09:51:32;;;;;;;5.93;3.20;;;9.00;95.10;;;;;;5070164;28;20503;-50
2022/03/09 09:53:59;;;;;;;4.97;3.97;;;9.10;94.80;;;;;;5069781;28;20025;-51
2022/03/09 09:56:25;;;;;;;7.65;3.50;;;9.20;94.10;;;;;;5070278;28;20107;-51
2022/03/09 09:58:51;;;;;;;7.28;3.85;;;9.30;93.80;;;;;;5069815;28;20108;-51
2022/03/09 10:01:18;;;;;;;5.60;3.78;;;9.40;93.00;;;;;;5051642;28;20514;-52
2022/03/09 10:03:43;;;;;;;10.80;3.78;;;9.50;92.50;;;;;;5069964;28;20029;-53
2022/03/09 10:06:09;;;;;;;5.00;3.55;;;9.60;92.40;;;;;;5070057;28;20120;-52
2022/03/09 10:08:35;;;;;;;7.03;4.15;;;9.70;91.70;;;;;;5069895;28;20021;-50
2022/03/09 10:11:03;;;;;;;6.38;3.22;;;9.80;90.50;;;;;;5070091;28;20055;-54
2022/03/09 10:13:30;;;;;;;4.53;3.55;;;9.90;89.60;;;;;;5069967;28;20373;-52
2022/03/09 10:16:20;;;;;;;5.13;3.80;;;10.00;92.60;;;;;;5070229;28;20112;-56
2022/03/09 10:18:54;;;;;;;5.03;3.90;;;10.10;89.00;;;;;;5066301;28;20023;-52
2022/03/09 10:21:28;;;;;;;4.80;3.85;;;10.10;88.80;;;;;;5069852;28;20025;-52
2022/03/09 10:24:00;;;;;;;6.85;4.20;;;10.20;90.60;;;;;;5069125;28;20013;-53
2022/03/09 10:26:45;;;;;;;4.28;3.72;;;10.30;89.10;;;;;;5069943;28;20016;-53
2022/03/09 10:29:16;;;;;;;8.77;4.25;;;10.30;89.50;;;;;;5069854;28;20024;-53
2022/03/09 10:31:48;;;;;;;5.78;3.63;;;10.30;83.10;;;;;;5069948;28;20135;-52
2022/03/09 10:34:25;;;;;;;4.32;3.72;;;10.30;85.20;;;;;;5069526;28;20539;-49
2022/03/09 10:36:55;;;;;;;4.13;3.70;;;10.30;84.10;;;;;;5069444;28;20025;-53
2022/03/09 10:39:22;;;;;;;5.80;3.83;;;10.30;80.50;;;;;;5069637;28;20033;-54
2022/03/09 10:41:47;;;;;;;5.05;3.78;;;10.30;84.00;;;;;;5070085;28;20024;-52
2022/03/09 10:44:13;;;;;;;4.80;3.83;;;10.30;80.00;;;;;;5051296;28;20542;-53
2022/03/09 10:46:48;;;;;;;6.18;4.03;;;10.30;82.70;;;;;;5069565;28;20066;-55
2022/03/09 10:49:19;;;;;;;7.35;4.10;;;10.40;80.90;;;;;;5069825;28;20035;-52
2022/03/09 10:51:49;;;;;;;5.00;3.75;;;10.40;79.20;;;;;;5051736;28;20020;-51
2022/03/09 10:54:29;;;;;;;7.40;4.20;;;10.50;80.50;;;;;;5069735;28;20124;-52
2022/03/09 10:57:11;;;;;;;5.20;4.22;;;10.50;78.20;;;;;;5070213;28;20403;-53
2022/03/09 10:59:50;;;;;;;6.70;3.88;;;10.60;82.40;;;;;;5051613;28;20021;-51
2022/03/09 11:02:19;;;;;;;7.53;4.38;;;10.60;80.70;;;;;;5068488;28;20032;-52
2022/03/09 11:05:14;;;;;;;5.20;3.70;;;10.60;78.30;;;;;;5069481;28;20020;-51
2022/03/09 11:07:41;;;;;;;6.18;4.40;;;10.60;76.00;;;;;;5051812;28;20048;-53
2022/03/09 11:10:08;;;;;;;6.05;3.70;;;10.60;78.40;;;;;;5069639;28;20052;-53
2022/03/09 11:12:35;;;;;;;5.30;4.00;;;10.70;77.70;;;;;;5069560;28;20086;-53
2022/03/09 11:15:01;;;;;;;6.63;4.07;;;10.70;77.50;;;;;;5073541;28;20104;-51
2022/03/09 11:17:27;;;;;;;6.60;4.10;;;10.70;74.90;;;;;;5073383;28;20108;-52
2022/03/09 11:19:53;;;;;;;6.03;3.92;;;10.80;77.00;;;;;;5073466;28;20016;-52
2022/03/09 11:22:19;;;;;;;6.03;4.50;;;10.90;75.10;;;;;;5072333;28;20036;-52
2022/03/09 11:24:45;;;;;;;5.70;4.20;;;10.90;75.30;;;;;;5073369;28;20024;-54
2022/03/09 11:27:11;;;;;;;5.68;4.32;;;11.00;73.50;;;;;;5072477;28;20032;-52
2022/03/09 11:29:39;;;;;;;4.70;4.22;;;11.00;73.20;;;;;;5073024;28;20040;-52
2022/03/09 11:32:07;;;;;;;5.15;3.75;;;11.00;73.80;;;;;;5072964;28;20025;-54
2022/03/09 11:34:44;;;;;;;5.68;3.80;;;10.90;72.10;;;;;;5073206;28;20059;-53
2022/03/09 11:37:18;;;;;;;6.20;3.92;;;10.90;69.90;;;;;;5055277;28;20083;-52
2022/03/09 11:39:46;;;;;;;5.15;4.32;;;11.00;73.30;;;;;;5072930;28;20052;-50
2022/03/09 11:42:20;;;;;;;5.93;4.28;;;11.00;72.80;;;;;;5072627;28;20028;-51
2022/03/09 11:44:50;;;;;;;5.15;3.65;;;11.00;72.30;;;;;;5073064;28;20040;-52
2022/03/09 11:47:17;;;;;;;5.28;3.67;;;11.00;72.90;;;;;;5072699;28;20032;-53
2022/03/09 11:49:45;;;;;;;4.50;3.72;;;11.10;69.10;;;;;;5072709;28;20082;-55
2022/03/09 11:52:20;;;;;;;4.50;3.40;;;11.10;70.20;;;;;;5071711;28;20519;-54
2022/03/09 11:54:46;;;;;;;4.88;3.67;;;11.10;71.00;;;;;;5072683;28;20081;-53
2022/03/09 11:57:14;;;;;;;5.80;4.32;;;11.10;71.30;;;;;;5072037;28;20021;-50
2022/03/09 11:59:59;;;;;;;4.80;4.07;;;11.10;68.40;;;;;;5071075;28;20025;-50
2022/03/09 12:02:44;;;;;;;5.93;3.90;;;11.20;68.20;;;;;;5072081;28;20031;-54
2022/03/09 12:05:25;;;;;;;4.50;3.60;;;11.30;68.70;;;;;;5072622;28;20029;-53
2022/03/09 12:08:03;;;;;;;5.10;3.80;;;11.30;68.80;;;;;;5072129;28;20436;-52
2022/03/09 12:10:54;;;;;;;4.88;3.72;;;11.30;68.90;;;;;;5072716;28;20490;-53
2022/03/09 12:13:27;;;;;;;5.88;4.28;;;11.40;68.50;;;;;;5072157;28;20028;-54
2022/03/09 12:16:01;;;;;;;5.55;4.53;;;11.40;66.60;;;;;;5072475;28;20029;-52
2022/03/09 12:18:56;;;;;;;4.68;4.13;;;11.40;67.50;;;;;;5072063;28;20043;-54
2022/03/09 12:21:28;;;;;;;6.43;4.57;;;11.40;67.60;;;;;;5071832;28;20366;-51
2022/03/09 12:24:05;;;;;;;5.03;3.92;;;11.50;64.50;;;;;;5071225;28;20028;-54
2022/03/09 12:26:40;;;;;;;5.75;4.32;;;11.40;64.90;;;;;;5071666;28;20035;-53
2022/03/09 12:29:17;;;;;;;4.75;3.92;;;11.50;66.70;;;;;;5072039;28;20029;-52
2022/03/09 12:31:44;;;;;;;5.70;4.45;;;11.50;67.20;;;;;;5071585;28;20036;-52
2022/03/09 12:34:10;;;;;;;5.22;4.05;;;11.50;66.70;;;;;;5071711;28;20020;-52
2022/03/09 12:36:35;;;;;;;6.07;3.92;;;11.50;66.40;;;;;;5070588;28;20074;-52
2022/03/09 12:39:05;;;;;;;5.95;4.53;;;11.50;65.70;;;;;;5072055;28;20052;-52
2022/03/09 12:41:40;;;;;;;8.00;4.68;;;11.50;67.20;;;;;;5071491;28;20047;-55
2022/03/09 12:44:15;;;;;;;5.03;4.07;;;11.60;65.20;;;;;;5053776;28;20024;-52
2022/03/09 12:46:44;;;;;;;4.93;4.15;;;11.60;64.90;;;;;;5071590;28;20044;-54
2022/03/09 12:49:29;;;;;;;5.22;4.25;;;11.60;64.20;;;;;;5053801;28;20028;-52
2022/03/09 12:51:59;;;;;;;6.10;4.75;;;11.60;65.10;;;;;;5052008;28;20055;-53
2022/03/09 12:54:33;;;;;;;4.78;4.07;;;11.70;64.60;;;;;;5069174;28;20082;-52
2022/03/09 12:57:12;;;;;;;5.85;4.18;;;11.70;65.50;;;;;;5053488;28;20583;-54
2022/03/09 12:59:40;;;;;;;6.57;4.20;;;11.60;65.10;;;;;;5070863;28;20085;-53
2022/03/09 13:02:06;;;;;;;8.05;4.47;;;11.70;62.70;;;;;;5076319;28;20476;-53
2022/03/09 13:04:32;;;;;;;5.35;3.90;;;11.60;64.70;;;;;;5091871;28;20031;-54
2022/03/09 13:07:13;;;;;;;6.07;4.43;;;11.60;64.40;;;;;;5068323;28;20043;-54
2022/03/09 13:09:43;;;;;;;5.30;4.00;;;11.60;64.20;;;;;;5071178;28;20025;-55
2022/03/09 13:12:11;;;;;;;4.72;3.97;;;11.60;62.30;;;;;;5069354;28;20119;-53
2022/03/09 13:14:37;;;;;;;5.47;4.05;;;11.60;62.80;;;;;;5054179;28;20508;-56
2022/03/09 13:17:05;;;;;;;6.05;5.05;;;11.70;64.60;;;;;;5071097;28;20056;-54
2022/03/09 13:19:35;;;;;;;5.32;4.50;;;11.70;62.40;;;;;;5070829;28;20397;-53
2022/03/09 13:22:00;;;;;;;5.28;3.97;;;11.80;61.60;;;;;;5070743;28;20028;-54
2022/03/09 13:24:27;;;;;;;5.05;4.40;;;11.80;62.50;;;;;;5071010;28;20598;-53
2022/03/09 13:26:53;;;;;;;8.27;4.88;;;11.80;62.10;;;;;;5070924;28;20455;-53
2022/03/09 13:29:21;;;;;;;5.03;3.85;;;11.90;63.50;;;;;;5070775;28;20028;-51
2022/03/09 13:31:49;;;;;;;4.32;3.78;;;11.80;64.20;;;;;;5071165;28;20035;-53
2022/03/09 13:34:17;;;;;;;7.63;4.18;;;11.90;61.70;;;;;;5070339;28;20103;-54
2022/03/09 13:36:43;;;;;;;4.88;3.60;;;11.90;60.80;;;;;;5052396;28;20066;-52
2022/03/09 13:39:11;;;;;;;5.00;4.22;;;11.90;61.40;;;;;;5070883;28;20081;-53
2022/03/09 13:41:42;;;;;;;5.38;4.50;;;11.90;62.30;;;;;;5069418;28;20032;-52
2022/03/09 13:44:26;;;;;;;6.05;4.43;;;11.90;61.70;;;;;;5070504;28;20028;-54
2022/03/09 13:47:08;;;;;;;7.57;5.30;;;12.00;64.00;;;;;;5070376;28;20039;-54
2022/03/09 13:49:46;;;;;;;5.13;3.97;;;12.00;61.70;;;;;;5069959;28;20048;-54
2022/03/09 13:52:29;;;;;;;7.10;4.05;;;12.00;63.20;;;;;;5069945;28;20028;-55
2022/03/09 13:54:56;;;;;;;5.20;4.38;;;12.00;62.90;;;;;;5070391;28;20438;-52
2022/03/09 13:57:38;;;;;;;5.10;4.47;;;12.00;62.80;;;;;;5070076;28;20520;-53
2022/03/09 14:00:21;;;;;;;7.00;4.25;;;12.10;63.60;;;;;;5070041;28;20032;-53
2022/03/09 14:02:48;;;;;;;5.03;4.35;;;12.10;62.60;;;;;;5070367;28;20048;-53
2022/03/09 14:05:30;;;;;;;6.78;4.60;;;12.20;63.60;;;;;;5070246;28;20067;-53
2022/03/09 14:07:57;;;;;;;5.70;4.50;;;12.20;62.70;;;;;;5070564;28;20024;-56
2022/03/09 14:10:31;;;;;;;5.65;4.63;;;12.20;61.80;;;;;;5070204;28;20023;-55
2022/03/09 14:13:07;;;;;;;5.05;4.25;;;12.20;62.10;;;;;;5069144;28;20030;-52
2022/03/09 14:15:33;;;;;;;5.93;4.43;;;12.20;60.30;;;;;;5067422;28;20472;-53
2022/03/09 14:18:00;;;;;;;5.13;4.28;;;12.20;61.00;;;;;;5070048;28;20032;-55
2022/03/09 14:20:26;;;;;;;6.57;4.30;;;12.10;61.10;;;;;;5069709;28;20495;-52
2022/03/09 14:22:53;;;;;;;6.43;4.53;;;12.10;60.90;;;;;;5069580;28;20024;-52
2022/03/09 14:25:19;;;;;;;5.40;4.05;;;12.10;61.50;;;;;;5069799;28;20037;-52
2022/03/09 14:27:45;;;;;;;6.97;4.07;;;12.10;61.90;;;;;;5069520;28;20039;-55
2022/03/09 14:30:14;;;;;;;4.60;3.95;;;12.10;60.20;;;;;;5069660;28;20024;-54
2022/03/09 14:32:41;;;;;;;5.85;4.47;;;12.00;60.30;;;;;;5069145;28;20056;-54
2022/03/09 14:35:08;;;;;;;5.15;4.40;;;12.00;61.00;;;;;;5069876;28;20017;-51